Time;durP1;ratioP1;P1;durP2;ratioP2;P2;SDS_P1;SDS_P2;PMS_P1;PMS_P2;Temp;Humidity;BMP_temperature;BMP_pressure;BME280_temperature;BME280_humidity;BME280_pressure;Samples;Min_cycle;Max_cycle;Signal;HPM_P1;HPM_P2
2022/12/05 00:03:22;;;;;;;21.77;12.73;;;5.70;99.90;;;;;;20923700;28;20205;-74
2022/12/05 00:13:24;;;;;;;22.07;13.37;;;;;;;;;;20922770;28;20632;-71
2022/12/05 00:23:26;;;;;;;24.27;13.93;;;;;;;;;;20921760;28;20210;-71
2022/12/05 00:33:27;;;;;;;27.83;13.73;;;6.00;99.90;;;;;;20921273;28;20757;-71
2022/12/05 00:43:29;;;;;;;24.40;13.37;;;6.10;99.90;;;;;;20920150;28;20210;-70
2022/12/05 00:53:31;;;;;;;26.17;13.97;;;6.00;99.90;;;;;;20919453;28;20257;-71
2022/12/05 01:03:34;;;;;;;29.00;13.60;;;;;;;;;;20916462;28;20628;-70
2022/12/05 01:13:36;;;;;;;29.33;14.20;;;6.20;99.90;;;;;;20918181;28;20258;-70
2022/12/05 01:23:38;;;;;;;23.77;12.67;;;6.10;99.90;;;;;;20916979;28;20227;-72
2022/12/05 01:33:40;;;;;;;24.00;12.97;;;6.10;99.90;;;;;;20916133;28;20296;-71
2022/12/05 01:44:01;;;;;;;23.77;12.20;;;6.20;99.90;;;;;;20915810;28;20226;-71
2022/12/05 01:54:04;;;;;;;22.70;12.67;;;6.10;99.90;;;;;;20915422;28;20259;-72
2022/12/05 02:04:08;;;;;;;24.07;12.77;;;6.10;99.90;;;;;;20917111;28;20264;-73
2022/12/05 02:14:16;;;;;;;24.57;12.60;;;6.00;99.90;;;;;;20913594;28;20266;-72
2022/12/05 02:24:20;;;;;;;22.47;11.47;;;6.00;99.90;;;;;;20912837;28;20291;-74
2022/12/05 02:34:46;;;;;;;24.27;12.40;;;6.00;99.90;;;;;;20915907;28;20287;-72
2022/12/05 02:44:55;;;;;;;27.60;13.60;;;5.90;99.90;;;;;;20915281;28;20239;-74
2022/12/05 02:54:58;;;;;;;26.30;12.57;;;6.00;99.90;;;;;;20912390;28;20208;-71
2022/12/05 03:05:43;;;;;;;22.33;12.93;;;6.10;99.90;;;;;;20911303;28;20700;-72
2022/12/05 03:15:54;;;;;;;25.50;12.77;;;6.20;99.90;;;;;;20911272;28;20202;-71
2022/12/05 03:26:16;;;;;;;26.77;12.03;;;6.20;99.90;;;;;;20919951;28;20310;-71
2022/12/05 03:36:22;;;;;;;23.57;12.20;;;6.20;99.90;;;;;;20925389;28;20242;-77
2022/12/05 03:46:46;;;;;;;28.30;12.87;;;7.20;99.90;;;;;;20925165;28;20619;-78
2022/12/05 03:56:58;;;;;;;26.37;12.73;;;6.30;99.90;;;;;;20924089;28;20616;-79
2022/12/05 04:07:03;;;;;;;23.20;11.77;;;8.10;99.90;;;;;;20923142;28;20698;-78
2022/12/05 04:17:16;;;;;;;22.70;12.57;;;6.40;99.90;;;;;;20923764;28;20210;-78
2022/12/05 04:27:26;;;;;;;25.93;12.80;;;6.40;99.90;;;;;;20921589;28;20292;-78
2022/12/05 04:37:34;;;;;;;27.83;13.50;;;6.30;99.90;;;;;;20920485;28;20643;-77
2022/12/05 04:47:41;;;;;;;29.93;13.70;;;6.30;99.90;;;;;;20920463;28;20699;-76
2022/12/05 04:58:09;;;;;;;32.90;14.83;;;6.30;99.90;;;;;;20919432;28;20201;-77
2022/12/05 05:08:20;;;;;;;29.80;14.03;;;6.30;99.90;;;;;;20918507;28;20233;-77
2022/12/05 05:18:23;;;;;;;28.43;13.27;;;;;;;;;;20916934;28;20289;-77
2022/12/05 05:28:25;;;;;;;25.80;13.20;;;;;;;;;;20917015;28;20301;-75
2022/12/05 05:38:27;;;;;;;28.27;12.97;;;;;;;;;;20915907;28;20230;-78
2022/12/05 05:48:28;;;;;;;23.43;11.77;;;6.50;99.90;;;;;;20914785;28;20233;-70
2022/12/05 05:58:30;;;;;;;20.87;10.63;;;6.60;99.90;;;;;;20912176;28;20202;-70
2022/12/05 06:08:35;;;;;;;17.37;10.10;;;6.70;99.90;;;;;;20913723;28;20243;-71
2022/12/05 06:18:37;;;;;;;15.50;9.13;;;;;;;;;;20911226;28;20215;-72
2022/12/05 06:28:39;;;;;;;15.00;8.57;;;6.70;99.90;;;;;;20912625;28;20236;-74
2022/12/05 06:38:41;;;;;;;13.83;8.50;;;6.70;99.90;;;;;;20911330;28;20238;-71
2022/12/05 06:48:43;;;;;;;14.63;9.60;;;6.60;99.90;;;;;;20909826;28;20329;-75
2022/12/05 06:58:48;;;;;;;23.40;13.10;;;6.50;99.90;;;;;;20918750;28;20199;-78
2022/12/05 07:08:50;;;;;;;20.80;11.63;;;6.50;99.90;;;;;;20927341;28;20243;-78
2022/12/05 07:18:52;;;;;;;21.13;11.47;;;;;;;;;;20925822;28;20681;-78
2022/12/05 07:28:56;;;;;;;22.07;12.07;;;6.40;99.90;;;;;;20925456;28;20702;-76
2022/12/05 07:38:58;;;;;;;19.20;12.03;;;6.40;99.90;;;;;;20923850;28;20235;-77
2022/12/05 07:49:00;;;;;;;20.30;10.63;;;;;;;;;;20923163;28;20233;-78
2022/12/05 07:59:02;;;;;;;17.50;9.93;;;6.40;99.90;;;;;;20922807;28;20211;-77
2022/12/05 08:09:04;;;;;;;17.67;10.10;;;;;;;;;;20921356;28;20243;-74
2022/12/05 08:19:09;;;;;;;15.00;9.20;;;6.40;99.90;;;;;;20921054;28;20211;-75
2022/12/05 08:29:13;;;;;;;14.00;8.47;;;6.50;99.80;;;;;;20920117;28;20690;-72
2022/12/05 08:39:18;;;;;;;11.97;8.00;;;6.60;99.80;;;;;;20918954;28;20765;-74
2022/12/05 08:49:20;;;;;;;15.80;8.87;;;6.60;99.60;;;;;;20918666;28;20238;-71
2022/12/05 08:59:21;;;;;;;15.97;9.10;;;6.60;99.50;;;;;;20918659;28;20209;-70
2022/12/05 09:09:24;;;;;;;17.50;10.37;;;;;;;;;;20917138;28;20297;-71
2022/12/05 09:19:26;;;;;;;20.97;13.07;;;;;;;;;;20914445;28;20304;-70
2022/12/05 09:29:30;;;;;;;19.63;10.47;;;6.80;99.40;;;;;;20915812;28;20234;-74
2022/12/05 09:39:33;;;;;;;20.47;10.83;;;6.80;99.40;;;;;;20914598;28;20240;-77
2022/12/05 09:49:40;;;;;;;18.77;10.70;;;6.90;99.40;;;;;;20913964;28;20245;-72
2022/12/05 09:59:42;;;;;;;20.77;10.13;;;;;;;;;;20913875;28;20211;-71
2022/12/05 10:09:51;;;;;;;17.17;9.30;;;7.20;99.50;;;;;;20912825;28;20261;-73
2022/12/05 10:19:57;;;;;;;15.83;8.60;;;7.10;99.30;;;;;;20911935;28;20215;-71
2022/12/05 10:30:17;;;;;;;16.30;9.10;;;7.10;99.40;;;;;;20911875;28;20576;-73
2022/12/05 10:40:19;;;;;;;14.33;8.63;;;7.00;99.40;;;;;;20911045;28;20290;-75
2022/12/05 10:50:24;;;;;;;12.30;7.53;;;7.00;99.50;;;;;;20910854;28;20285;-75
2022/12/05 11:00:31;;;;;;;15.23;7.47;;;7.10;99.70;;;;;;20911067;28;20254;-70
2022/12/05 11:10:42;;;;;;;12.47;7.67;;;7.00;99.70;;;;;;20909379;28;20227;-77
2022/12/05 11:20:44;;;;;;;17.07;7.93;;;;;;;;;;20909858;28;20214;-74
2022/12/05 11:31:00;;;;;;;12.37;8.07;;;7.30;99.80;;;;;;20909994;28;20301;-72
2022/12/05 11:41:14;;;;;;;16.57;9.40;;;7.30;99.70;;;;;;20908903;28;20274;-76
2022/12/05 11:51:15;;;;;;;22.10;10.60;;;7.30;99.80;;;;;;20920754;28;20234;-73
2022/12/05 12:01:38;;;;;;;22.57;11.80;;;7.20;99.80;;;;;;20921897;28;20202;-76
2022/12/05 12:11:48;;;;;;;21.67;12.10;;;7.00;99.80;;;;;;20921644;28;20702;-76
2022/12/05 12:22:08;;;;;;;22.13;12.63;;;7.20;99.90;;;;;;20920582;28;20214;-77
2022/12/05 12:32:30;;;;;;;24.17;12.73;;;7.10;99.90;;;;;;20919416;28;20279;-75
2022/12/05 12:42:36;;;;;;;24.57;12.73;;;;;;;;;;20918934;28;20246;-78
2022/12/05 12:52:44;;;;;;;25.27;13.43;;;7.10;99.90;;;;;;20918905;28;20236;-76
2022/12/05 13:02:56;;;;;;;27.13;13.90;;;5.80;99.50;;;;;;20917263;28;20257;-74
2022/12/05 13:12:58;;;;;;;25.80;13.83;;;7.20;99.90;;;;;;20916768;28;20232;-76
2022/12/05 13:23:03;;;;;;;23.10;12.83;;;7.20;99.90;;;;;;20915504;28;20271;-76
2022/12/05 13:33:15;;;;;;;25.77;12.33;;;7.20;99.90;;;;;;20915286;28;20594;-78
2022/12/05 13:43:24;;;;;;;19.63;11.03;;;7.20;99.90;;;;;;20915246;28;20253;-75
2022/12/05 13:53:45;;;;;;;17.57;10.33;;;7.40;99.90;;;;;;20913117;28;20242;-79
2022/12/05 14:03:47;;;;;;;16.23;9.53;;;;;;;;;;20911979;28;20211;-78
2022/12/05 14:13:49;;;;;;;14.70;8.40;;;7.30;99.60;;;;;;20911738;28;20238;-73
2022/12/05 14:24:00;;;;;;;13.50;7.67;;;7.40;99.50;;;;;;20912112;28;20663;-72
2022/12/05 14:34:23;;;;;;;13.13;8.07;;;7.40;99.40;;;;;;20910901;28;20247;-73
2022/12/05 14:44:30;;;;;;;10.47;6.83;;;7.40;99.30;;;;;;20911545;28;20235;-73
2022/12/05 14:54:33;;;;;;;11.33;7.67;;;;;;;;;;20910413;28;20273;-74
2022/12/05 15:04:45;;;;;;;13.17;7.90;;;7.30;99.20;;;;;;20910350;28;20260;-73
2022/12/05 15:15:16;;;;;;;11.83;7.47;;;7.30;99.20;;;;;;20910697;28;20685;-72
2022/12/05 15:25:30;;;;;;;11.30;7.70;;;7.20;99.30;;;;;;20924312;28;20235;-73
2022/12/05 15:35:33;;;;;;;13.43;7.73;;;7.20;99.30;;;;;;20924506;28;20285;-72
2022/12/05 15:45:36;;;;;;;15.20;8.50;;;;;;;;;;20924668;28;20239;-72
2022/12/05 15:55:44;;;;;;;13.07;8.37;;;6.90;99.30;;;;;;20923519;28;20204;-72
2022/12/05 16:05:53;;;;;;;13.43;8.20;;;7.00;99.50;;;;;;20922119;28;20238;-72
2022/12/05 16:15:57;;;;;;;12.53;7.63;;;7.00;99.50;;;;;;20923531;28;20219;-73
2022/12/05 16:26:19;;;;;;;12.37;7.53;;;7.00;99.50;;;;;;20921112;28;20244;-73
2022/12/05 16:36:21;;;;;;;17.97;10.27;;;6.90;99.40;;;;;;20919760;28;20231;-73
2022/12/05 16:46:39;;;;;;;11.67;7.57;;;7.00;99.50;;;;;;20919532;28;20684;-73
2022/12/05 16:56:41;;;;;;;13.30;7.90;;;;;;;;;;20919962;28;20223;-75
2022/12/05 17:06:43;;;;;;;12.73;8.23;;;6.90;99.50;;;;;;20916389;28;20230;-75
2022/12/05 17:16:45;;;;;;;13.63;8.13;;;7.00;99.60;;;;;;20937646;28;20206;-74
2022/12/05 17:26:47;;;;;;;15.10;9.27;;;7.00;99.60;;;;;;20964435;28;20234;-71
2022/12/05 17:36:48;;;;;;;11.73;8.00;;;7.00;99.60;;;;;;20941240;28;20229;-72
2022/12/05 17:46:50;;;;;;;14.87;9.47;;;;;;;;;;20913948;28;20227;-71
2022/12/05 17:56:53;;;;;;;15.07;9.70;;;;;;;;;;20996659;28;20571;-74
2022/12/05 18:07:41;;;;;;;13.77;8.00;;;6.90;99.60;;;;;;21067380;28;20559;-71
2022/12/05 18:17:43;;;;;;;16.43;9.53;;;6.90;99.60;;;;;;21066913;28;20213;-71
2022/12/05 18:27:45;;;;;;;12.30;7.83;;;7.00;99.50;;;;;;21121696;28;20210;-73
2022/12/05 18:37:46;;;;;;;10.97;7.27;;;6.80;99.40;;;;;;21148818;28;20567;-72
2022/12/05 18:47:48;;;;;;;11.70;7.13;;;6.90;99.40;;;;;;21146472;28;20290;-73
2022/12/05 18:57:50;;;;;;;10.70;7.20;;;6.90;99.30;;;;;;21146350;28;20210;-72
2022/12/05 19:07:52;;;;;;;12.30;7.73;;;6.90;99.20;;;;;;21146719;28;20266;-74
2022/12/05 19:17:54;;;;;;;12.53;8.47;;;6.90;99.20;;;;;;21095171;28;20205;-75
2022/12/05 19:27:56;;;;;;;13.43;8.97;;;6.80;99.10;;;;;;21087926;28;20241;-73
2022/12/05 19:37:58;;;;;;;14.33;8.73;;;6.70;99.20;;;;;;21088081;28;20277;-70
2022/12/05 19:47:59;;;;;;;13.07;8.27;;;6.60;99.20;;;;;;21088056;28;20209;-75
2022/12/05 19:58:01;;;;;;;13.07;7.83;;;6.60;99.10;;;;;;21087231;28;20234;-73
2022/12/05 20:08:03;;;;;;;10.00;6.47;;;6.50;98.90;;;;;;21086493;28;20286;-75
2022/12/05 20:18:05;;;;;;;8.63;5.20;;;6.50;98.80;;;;;;21085519;28;20219;-73
2022/12/05 20:28:07;;;;;;;8.33;5.30;;;6.40;98.40;;;;;;21084261;28;20270;-71
2022/12/05 20:38:09;;;;;;;8.07;5.63;;;;;;;;;;21083971;28;20233;-67
2022/12/05 20:48:12;;;;;;;7.83;5.87;;;;;;;;;;21083230;28;20200;-70
2022/12/05 20:58:13;;;;;;;11.57;6.63;;;6.50;98.40;;;;;;20998800;28;20234;-69
2022/12/05 21:08:15;;;;;;;10.23;6.47;;;;;;;;;;21003328;28;20213;-70
2022/12/05 21:18:18;;;;;;;12.30;7.17;;;;;;;;;;21045220;28;20219;-69
2022/12/05 21:28:20;;;;;;;8.80;6.30;;;6.60;98.30;;;;;;21037542;28;20210;-70
2022/12/05 21:38:21;;;;;;;8.63;5.97;;;6.60;98.30;;;;;;20995644;28;20576;-70
2022/12/05 21:48:24;;;;;;;9.10;6.47;;;6.60;98.20;;;;;;21063501;28;20254;-72
2022/12/05 21:58:25;;;;;;;8.77;5.70;;;6.60;98.20;;;;;;21076879;28;20238;-71
2022/12/05 22:08:29;;;;;;;7.37;5.33;;;6.60;98.10;;;;;;21078261;28;20205;-70
2022/12/05 22:18:31;;;;;;;7.97;5.00;;;6.60;98.00;;;;;;21077845;28;20226;-73
2022/12/05 22:28:34;;;;;;;4.97;3.53;;;6.50;97.90;;;;;;21078036;28;20218;-75
2022/12/05 22:38:39;;;;;;;4.47;3.40;;;6.40;97.70;;;;;;21077230;28;20692;-76
2022/12/05 22:48:40;;;;;;;4.70;3.50;;;6.40;97.80;;;;;;21081380;28;20215;-75
2022/12/05 22:58:43;;;;;;;10.00;4.50;;;6.40;97.80;;;;;;21092126;28;20232;-74
2022/12/05 23:08:49;;;;;;;6.30;4.50;;;6.40;97.60;;;;;;21091310;28;20577;-72
2022/12/05 23:18:56;;;;;;;6.27;3.90;;;6.30;97.70;;;;;;21090401;28;20268;-75
2022/12/05 23:28:58;;;;;;;6.60;3.80;;;6.20;97.70;;;;;;21090242;28;20660;-74
2022/12/05 23:39:00;;;;;;;5.87;4.03;;;6.20;97.70;;;;;;21088912;28;20634;-74
2022/12/05 23:49:02;;;;;;;6.30;4.20;;;;;;;;;;21088186;28;20210;-73
2022/12/05 23:59:05;;;;;;;7.50;4.20;;;6.20;97.80;;;;;;21087512;28;20713;-71
